Terminal Aerodrome Forecast
Issued by NWS Wilmington, OH

Current Version | Previous Version | Graphics & Text | Print | Product List | Glossary On
Versions: 1 2 3 4 5 6 7 8 9 10 11 12 13 14 15
000
FTUS41 KILN 261737
TAFDAY
TAF
KDAY 261737Z 2618/2718 29013G22KT P6SM SCT050
     FM270000 28008KT P6SM VCSH BKN100
     FM270600 27005KT P6SM SCT100
     FM271500 30008KT P6SM SCT050=

USA.gov is the U.S. government's official web portal to all federal, state and local government web resources and services.